sensor_id;sensor_type;location;lat;lon;timestamp;pressure;altitude;pressure_sealevel;temperature;humidity
67931;BME280;63902;52.000;5.954;2023-04-30T00:00:24;101973.50;;;6.78;85.75
67931;BME280;63902;52.000;5.954;2023-04-30T00:01:24;101969.13;;;6.77;85.71
67931;BME280;63902;52.000;5.954;2023-04-30T00:02:25;101963.00;;;6.71;85.77
67931;BME280;63902;52.000;5.954;2023-04-30T00:03:25;101952.53;;;6.67;85.42
67931;BME280;63902;52.000;5.954;2023-04-30T00:04:26;101965.66;;;6.73;85.84
67931;BME280;63902;52.000;5.954;2023-04-30T00:05:26;101972.69;;;6.71;85.89
67931;BME280;63902;52.000;5.954;2023-04-30T00:06:27;101966.56;;;6.70;85.77
67931;BME280;63902;52.000;5.954;2023-04-30T00:07:27;101970.94;;;6.70;86.03
67931;BME280;63902;52.000;5.954;2023-04-30T00:08:28;101968.34;;;6.67;85.99
67931;BME280;63902;52.000;5.954;2023-04-30T00:09:28;101967.47;;;6.63;86.21
67931;BME280;63902;52.000;5.954;2023-04-30T00:10:29;101963.09;;;6.64;86.13
67931;BME280;63902;52.000;5.954;2023-04-30T00:11:29;101964.81;;;6.63;86.26
67931;BME280;63902;52.000;5.954;2023-04-30T00:12:30;101973.63;;;6.62;86.38
67931;BME280;63902;52.000;5.954;2023-04-30T00:13:30;101972.75;;;6.62;86.46
67931;BME280;63902;52.000;5.954;2023-04-30T00:14:31;101971.00;;;6.61;86.22
67931;BME280;63902;52.000;5.954;2023-04-30T00:15:33;101976.28;;;6.59;86.27
67931;BME280;63902;52.000;5.954;2023-04-30T00:16:33;101974.56;;;6.58;86.46
67931;BME280;63902;52.000;5.954;2023-04-30T00:17:34;101976.28;;;6.58;86.47
67931;BME280;63902;52.000;5.954;2023-04-30T00:18:34;101979.81;;;6.57;86.64
67931;BME280;63902;52.000;5.954;2023-04-30T00:19:35;101981.56;;;6.55;86.54
67931;BME280;63902;52.000;5.954;2023-04-30T00:20:35;101978.09;;;6.53;86.71
67931;BME280;63902;52.000;5.954;2023-04-30T00:21:36;101978.97;;;6.52;86.50
67931;BME280;63902;52.000;5.954;2023-04-30T00:22:36;101975.44;;;6.49;86.68
67931;BME280;63902;52.000;5.954;2023-04-30T00:23:36;101979.00;;;6.47;86.94
67931;BME280;63902;52.000;5.954;2023-04-30T00:24:37;101977.25;;;6.44;86.76
67931;BME280;63902;52.000;5.954;2023-04-30T00:25:37;101978.13;;;6.43;86.75
67931;BME280;63902;52.000;5.954;2023-04-30T00:26:38;101973.75;;;6.41;86.78
67931;BME280;63902;52.000;5.954;2023-04-30T00:27:38;101982.53;;;6.43;86.88
67931;BME280;63902;52.000;5.954;2023-04-30T00:28:39;101976.38;;;6.41;86.79
67931;BME280;63902;52.000;5.954;2023-04-30T00:29:39;101972.00;;;6.41;87.09
67931;BME280;63902;52.000;5.954;2023-04-30T00:30:41;101975.50;;;6.40;87.06
67931;BME280;63902;52.000;5.954;2023-04-30T00:31:42;101979.03;;;6.39;86.70
67931;BME280;63902;52.000;5.954;2023-04-30T00:32:42;101983.44;;;6.39;87.18
67931;BME280;63902;52.000;5.954;2023-04-30T00:33:43;101977.28;;;6.38;86.93
67931;BME280;63902;52.000;5.954;2023-04-30T00:34:43;101974.66;;;6.37;87.19
67931;BME280;63902;52.000;5.954;2023-04-30T00:35:44;101975.53;;;6.36;87.20
67931;BME280;63902;52.000;5.954;2023-04-30T00:36:44;101976.44;;;6.33;87.11
67931;BME280;63902;52.000;5.954;2023-04-30T00:37:45;101977.31;;;6.32;87.37
67931;BME280;63902;52.000;5.954;2023-04-30T00:38:45;101968.53;;;6.30;87.31
67931;BME280;63902;52.000;5.954;2023-04-30T00:39:45;101976.44;;;6.28;87.12
67931;BME280;63902;52.000;5.954;2023-04-30T00:40:46;101971.19;;;6.27;87.29
67931;BME280;63902;52.000;5.954;2023-04-30T00:41:46;101979.97;;;6.26;87.63
67931;BME280;63902;52.000;5.954;2023-04-30T00:42:47;101971.19;;;6.27;87.40
67931;BME280;63902;52.000;5.954;2023-04-30T00:43:47;101976.47;;;6.25;87.09
67931;BME280;63902;52.000;5.954;2023-04-30T00:44:48;101981.72;;;6.24;87.48
67931;BME280;63902;52.000;5.954;2023-04-30T00:45:50;101977.34;;;6.23;87.34
67931;BME280;63902;52.000;5.954;2023-04-30T00:46:50;101976.47;;;6.21;87.44
67931;BME280;63902;52.000;5.954;2023-04-30T00:47:51;101968.63;;;6.16;87.31
67931;BME280;63902;52.000;5.954;2023-04-30T00:48:51;101973.88;;;6.18;87.73
67931;BME280;63902;52.000;5.954;2023-04-30T00:49:52;101972.09;;;6.20;87.31
67931;BME280;63902;52.000;5.954;2023-04-30T00:50:52;101977.34;;;6.21;87.63
67931;BME280;63902;52.000;5.954;2023-04-30T00:51:53;101978.25;;;6.19;87.45
67931;BME280;63902;52.000;5.954;2023-04-30T00:52:54;101976.47;;;6.21;87.21
67931;BME280;63902;52.000;5.954;2023-04-30T00:53:55;101980.00;;;6.20;87.47
67931;BME280;63902;52.000;5.954;2023-04-30T00:54:55;101978.25;;;6.19;87.54
67931;BME280;63902;52.000;5.954;2023-04-30T00:55:56;101985.28;;;6.20;87.30
67931;BME280;63902;52.000;5.954;2023-04-30T00:56:57;101980.00;;;6.18;87.29
67931;BME280;63902;52.000;5.954;2023-04-30T00:57:58;101978.25;;;6.17;87.38
67931;BME280;63902;52.000;5.954;2023-04-30T00:58:59;101979.13;;;6.18;87.81
67931;BME280;63902;52.000;5.954;2023-04-30T01:00:00;101983.50;;;6.19;87.63
67931;BME280;63902;52.000;5.954;2023-04-30T01:01:02;101981.75;;;6.18;87.82
67931;BME280;63902;52.000;5.954;2023-04-30T01:02:03;101983.50;;;6.20;87.58
67931;BME280;63902;52.000;5.954;2023-04-30T01:03:03;101976.50;;;6.13;87.54
67931;BME280;63902;52.000;5.954;2023-04-30T01:04:04;101984.41;;;6.19;87.39
67931;BME280;63902;52.000;5.954;2023-04-30T01:05:06;101981.75;;;6.21;87.61
67931;BME280;63902;52.000;5.954;2023-04-30T01:06:07;101982.63;;;6.21;87.85
67931;BME280;63902;52.000;5.954;2023-04-30T01:07:07;101982.59;;;6.24;87.79
67931;BME280;63902;52.000;5.954;2023-04-30T01:08:09;101987.88;;;6.24;87.35
67931;BME280;63902;52.000;5.954;2023-04-30T01:09:10;101986.16;;;6.22;87.56
67931;BME280;63902;52.000;5.954;2023-04-30T01:10:12;101982.66;;;6.20;87.70
67931;BME280;63902;52.000;5.954;2023-04-30T01:11:21;101982.63;;;6.18;87.50
67931;BME280;63902;52.000;5.954;2023-04-30T01:12:29;101981.78;;;6.15;87.29
67931;BME280;63902;52.000;5.954;2023-04-30T01:13:38;101984.41;;;6.15;87.68
67931;BME280;63902;52.000;5.954;2023-04-30T01:14:47;101984.41;;;6.13;87.52
67931;BME280;63902;52.000;5.954;2023-04-30T01:15:55;101984.44;;;6.12;87.55
67931;BME280;63902;52.000;5.954;2023-04-30T01:17:04;101980.94;;;6.11;87.65
67931;BME280;63902;52.000;5.954;2023-04-30T01:18:09;101987.97;;;6.11;87.53
67931;BME280;63902;52.000;5.954;2023-04-30T01:19:23;101979.16;;;6.12;87.48
67931;BME280;63902;52.000;5.954;2023-04-30T01:20:28;101985.31;;;6.12;87.68
67931;BME280;63902;52.000;5.954;2023-04-30T01:21:31;101990.56;;;6.14;87.68
67931;BME280;63902;52.000;5.954;2023-04-30T01:22:35;101987.06;;;6.15;87.64
67931;BME280;63902;52.000;5.954;2023-04-30T01:23:46;101990.56;;;6.14;87.17
67931;BME280;63902;52.000;5.954;2023-04-30T01:25:06;101984.44;;;6.12;87.63
67931;BME280;63902;52.000;5.954;2023-04-30T01:26:13;101988.81;;;6.10;87.37
67931;BME280;63902;52.000;5.954;2023-04-30T01:27:23;101989.69;;;6.10;87.59
67931;BME280;63902;52.000;5.954;2023-04-30T01:28:34;101980.94;;;6.03;87.43
67931;BME280;63902;52.000;5.954;2023-04-30T01:29:35;101985.34;;;6.03;87.70
67931;BME280;63902;52.000;5.954;2023-04-30T01:30:38;101986.22;;;6.03;87.76
67931;BME280;63902;52.000;5.954;2023-04-30T01:31:42;101984.47;;;6.02;87.76
67931;BME280;63902;52.000;5.954;2023-04-30T01:32:42;101979.22;;;6.02;87.60
67931;BME280;63902;52.000;5.954;2023-04-30T01:33:43;101984.47;;;6.02;87.57
67931;BME280;63902;52.000;5.954;2023-04-30T01:34:43;101978.34;;;6.00;87.67
67931;BME280;63902;52.000;5.954;2023-04-30T01:37:23;101974.81;;;5.98;88.05
67931;BME280;63902;52.000;5.954;2023-04-30T01:38:40;101963.41;;;5.92;87.51
67931;BME280;63902;52.000;5.954;2023-04-30T01:39:56;101978.34;;;5.97;87.60
67931;BME280;63902;52.000;5.954;2023-04-30T01:41:08;101979.19;;;5.96;87.60
67931;BME280;63902;52.000;5.954;2023-04-30T01:42:12;101977.44;;;5.92;87.66
67931;BME280;63902;52.000;5.954;2023-04-30T01:43:19;101984.47;;;5.93;87.90
67931;BME280;63902;52.000;5.954;2023-04-30T01:44:30;101980.06;;;5.92;87.77
67931;BME280;63902;52.000;5.954;2023-04-30T01:45:45;101969.56;;;5.89;87.81
67931;BME280;63902;52.000;5.954;2023-04-30T01:46:55;101975.72;;;5.88;87.72
67931;BME280;63902;52.000;5.954;2023-04-30T01:48:02;101982.72;;;5.88;87.63
67931;BME280;63902;52.000;5.954;2023-04-30T01:49:08;101980.09;;;5.88;88.09
67931;BME280;63902;52.000;5.954;2023-04-30T01:50:19;101973.09;;;5.88;88.08
67931;BME280;63902;52.000;5.954;2023-04-30T01:51:27;101981.84;;;5.87;88.03
67931;BME280;63902;52.000;5.954;2023-04-30T01:52:34;101978.31;;;5.85;88.00
67931;BME280;63902;52.000;5.954;2023-04-30T01:53:40;101973.09;;;5.77;88.09
67931;BME280;63902;52.000;5.954;2023-04-30T01:54:45;101981.00;;;5.80;88.48
67931;BME280;63902;52.000;5.954;2023-04-30T01:55:50;101991.53;;;5.80;88.46
67931;BME280;63902;52.000;5.954;2023-04-30T01:57:01;101991.53;;;5.77;88.55
67931;BME280;63902;52.000;5.954;2023-04-30T01:58:05;101994.16;;;5.77;88.40
67931;BME280;63902;52.000;5.954;2023-04-30T01:59:09;101992.41;;;5.76;88.66
67931;BME280;63902;52.000;5.954;2023-04-30T02:00:12;101990.66;;;5.74;88.44
67931;BME280;63902;52.000;5.954;2023-04-30T02:01:25;101990.66;;;5.74;88.62
67931;BME280;63902;52.000;5.954;2023-04-30T02:02:25;101986.28;;;5.74;88.45
67931;BME280;63902;52.000;5.954;2023-04-30T02:03:26;101991.53;;;5.76;88.56
67931;BME280;63902;52.000;5.954;2023-04-30T02:04:26;101984.53;;;5.72;88.39
67931;BME280;63902;52.000;5.954;2023-04-30T02:05:27;101989.78;;;5.73;88.55
67931;BME280;63902;52.000;5.954;2023-04-30T02:06:27;102000.31;;;5.75;88.67
67931;BME280;63902;52.000;5.954;2023-04-30T02:07:36;102003.78;;;5.77;88.48
67931;BME280;63902;52.000;5.954;2023-04-30T02:08:37;102004.69;;;5.76;88.67
67931;BME280;63902;52.000;5.954;2023-04-30T02:09:38;102008.22;;;5.75;88.64
67931;BME280;63902;52.000;5.954;2023-04-30T02:10:38;102000.31;;;5.73;88.75
67931;BME280;63902;52.000;5.954;2023-04-30T02:11:39;102005.56;;;5.78;88.80
67931;BME280;63902;52.000;5.954;2023-04-30T02:12:39;101999.41;;;5.79;88.47
67931;BME280;63902;52.000;5.954;2023-04-30T02:13:40;101998.53;;;5.78;88.51
67931;BME280;63902;52.000;5.954;2023-04-30T02:14:41;101994.16;;;5.73;88.49
67931;BME280;63902;52.000;5.954;2023-04-30T02:15:42;102004.69;;;5.77;88.90
67931;BME280;63902;52.000;5.954;2023-04-30T02:16:43;102003.78;;;5.77;88.76
67931;BME280;63902;52.000;5.954;2023-04-30T02:17:43;101999.44;;;5.76;88.70
67931;BME280;63902;52.000;5.954;2023-04-30T02:18:44;101999.44;;;5.74;88.83
67931;BME280;63902;52.000;5.954;2023-04-30T02:19:45;102006.44;;;5.74;88.53
67931;BME280;63902;52.000;5.954;2023-04-30T02:20:45;102002.97;;;5.72;88.60
67931;BME280;63902;52.000;5.954;2023-04-30T02:21:46;102000.31;;;5.70;89.12
67931;BME280;63902;52.000;5.954;2023-04-30T02:22:47;102005.56;;;5.66;89.13
67931;BME280;63902;52.000;5.954;2023-04-30T02:23:47;102009.09;;;5.69;89.53
67931;BME280;63902;52.000;5.954;2023-04-30T02:24:48;102002.97;;;5.69;89.34
67931;BME280;63902;52.000;5.954;2023-04-30T02:25:48;101996.81;;;5.67;89.03
67931;BME280;63902;52.000;5.954;2023-04-30T02:26:49;102009.09;;;5.72;89.35
67931;BME280;63902;52.000;5.954;2023-04-30T02:27:49;102010.88;;;5.69;89.01
67931;BME280;63902;52.000;5.954;2023-04-30T02:28:50;102006.44;;;5.71;89.05
67931;BME280;63902;52.000;5.954;2023-04-30T02:29:51;101995.94;;;5.61;89.01
67931;BME280;63902;52.000;5.954;2023-04-30T02:30:53;102009.09;;;5.69;89.25
67931;BME280;63902;52.000;5.954;2023-04-30T02:31:56;102005.59;;;5.67;88.98
67931;BME280;63902;52.000;5.954;2023-04-30T02:32:56;101996.81;;;5.64;88.98
67931;BME280;63902;52.000;5.954;2023-04-30T02:33:57;102002.97;;;5.69;89.36
67931;BME280;63902;52.000;5.954;2023-04-30T02:34:57;101995.94;;;5.65;89.53
67931;BME280;63902;52.000;5.954;2023-04-30T02:35:59;102000.31;;;5.70;89.47
67931;BME280;63902;52.000;5.954;2023-04-30T02:36:59;101990.69;;;5.63;89.26
67931;BME280;63902;52.000;5.954;2023-04-30T02:38:00;102003.81;;;5.75;90.66
67931;BME280;63902;52.000;5.954;2023-04-30T02:39:00;102002.06;;;5.76;90.13
67931;BME280;63902;52.000;5.954;2023-04-30T02:40:01;101995.94;;;5.72;89.72
67931;BME280;63902;52.000;5.954;2023-04-30T02:41:01;102006.44;;;5.77;89.93
67931;BME280;63902;52.000;5.954;2023-04-30T02:42:02;101999.44;;;5.73;89.68
67931;BME280;63902;52.000;5.954;2023-04-30T02:43:02;102002.94;;;5.76;89.84
67931;BME280;63902;52.000;5.954;2023-04-30T02:44:03;102002.06;;;5.74;89.54
67931;BME280;63902;52.000;5.954;2023-04-30T02:45:05;102007.34;;;5.73;89.40
67931;BME280;63902;52.000;5.954;2023-04-30T02:46:07;102001.19;;;5.74;89.58
67931;BME280;63902;52.000;5.954;2023-04-30T02:47:07;102002.06;;;5.73;89.59
67931;BME280;63902;52.000;5.954;2023-04-30T02:48:07;102001.19;;;5.72;89.51
67931;BME280;63902;52.000;5.954;2023-04-30T02:49:08;102003.81;;;5.72;89.50
67931;BME280;63902;52.000;5.954;2023-04-30T02:50:09;102003.81;;;5.71;89.55
67931;BME280;63902;52.000;5.954;2023-04-30T02:51:10;101996.81;;;5.68;89.75
67931;BME280;63902;52.000;5.954;2023-04-30T02:52:10;101992.41;;;5.66;89.54
67931;BME280;63902;52.000;5.954;2023-04-30T02:53:11;101996.78;;;5.71;89.51
67931;BME280;63902;52.000;5.954;2023-04-30T02:54:11;102003.81;;;5.71;89.67
67931;BME280;63902;52.000;5.954;2023-04-30T02:55:12;101997.69;;;5.69;89.57
67931;BME280;63902;52.000;5.954;2023-04-30T02:56:12;102000.31;;;5.66;89.80
67931;BME280;63902;52.000;5.954;2023-04-30T02:57:13;101999.47;;;5.64;89.83
67931;BME280;63902;52.000;5.954;2023-04-30T02:58:13;101994.19;;;5.64;89.77
67931;BME280;63902;52.000;5.954;2023-04-30T02:59:14;101991.56;;;5.62;90.32
67931;BME280;63902;52.000;5.954;2023-04-30T03:00:14;101988.91;;;5.62;89.81
67931;BME280;63902;52.000;5.954;2023-04-30T03:01:16;101984.56;;;5.58;90.01
67931;BME280;63902;52.000;5.954;2023-04-30T03:02:16;101993.31;;;5.61;89.88
67931;BME280;63902;52.000;5.954;2023-04-30T03:03:17;101986.31;;;5.57;89.87
67931;BME280;63902;52.000;5.954;2023-04-30T03:04:17;101986.31;;;5.57;90.07
67931;BME280;63902;52.000;5.954;2023-04-30T03:05:18;101985.44;;;5.55;89.95
67931;BME280;63902;52.000;5.954;2023-04-30T03:06:18;101993.31;;;5.58;90.40
67931;BME280;63902;52.000;5.954;2023-04-30T03:07:19;101994.19;;;5.59;90.51
67931;BME280;63902;52.000;5.954;2023-04-30T03:08:19;101988.94;;;5.60;90.23
67931;BME280;63902;52.000;5.954;2023-04-30T03:09:20;101986.28;;;5.59;90.30
67931;BME280;63902;52.000;5.954;2023-04-30T03:10:20;101995.94;;;5.58;89.95
67931;BME280;63902;52.000;5.954;2023-04-30T03:11:21;101988.94;;;5.57;90.42
67931;BME280;63902;52.000;5.954;2023-04-30T03:12:22;101976.66;;;5.53;90.16
67931;BME280;63902;52.000;5.954;2023-04-30T03:13:22;101988.06;;;5.58;90.11
67931;BME280;63902;52.000;5.954;2023-04-30T03:14:22;101983.66;;;5.56;90.26
67931;BME280;63902;52.000;5.954;2023-04-30T03:15:23;101986.28;;;5.54;90.18
67931;BME280;63902;52.000;5.954;2023-04-30T03:16:25;101984.56;;;5.53;90.53
67931;BME280;63902;52.000;5.954;2023-04-30T03:17:25;101981.91;;;5.53;90.69
67931;BME280;63902;52.000;5.954;2023-04-30T03:18:26;101979.31;;;5.52;90.34
67931;BME280;63902;52.000;5.954;2023-04-30T03:19:26;101988.06;;;5.51;90.68
67931;BME280;63902;52.000;5.954;2023-04-30T03:20:27;101982.81;;;5.48;90.52
67931;BME280;63902;52.000;5.954;2023-04-30T03:21:27;101979.28;;;5.46;90.40
67931;BME280;63902;52.000;5.954;2023-04-30T03:22:28;101982.81;;;5.43;90.66
67931;BME280;63902;52.000;5.954;2023-04-30T03:23:29;101990.69;;;5.43;91.05
67931;BME280;63902;52.000;5.954;2023-04-30T03:24:30;101976.69;;;5.35;90.61
67931;BME280;63902;52.000;5.954;2023-04-30T03:25:30;101985.44;;;5.40;90.99
67931;BME280;63902;52.000;5.954;2023-04-30T03:26:31;101991.59;;;5.39;90.70
67931;BME280;63902;52.000;5.954;2023-04-30T03:27:31;101991.59;;;5.36;90.99
67931;BME280;63902;52.000;5.954;2023-04-30T03:28:32;101988.97;;;5.36;91.34
67931;BME280;63902;52.000;5.954;2023-04-30T03:29:32;101981.06;;;5.33;90.82
67931;BME280;63902;52.000;5.954;2023-04-30T03:30:33;101988.94;;;5.34;91.08
67931;BME280;63902;52.000;5.954;2023-04-30T03:31:34;101981.94;;;5.32;90.88
67931;BME280;63902;52.000;5.954;2023-04-30T03:32:35;101984.59;;;5.33;90.91
67931;BME280;63902;52.000;5.954;2023-04-30T03:33:36;101985.47;;;5.31;91.17
67931;BME280;63902;52.000;5.954;2023-04-30T03:34:37;101978.44;;;5.30;91.01
67931;BME280;63902;52.000;5.954;2023-04-30T03:35:37;101978.44;;;5.30;91.11
67931;BME280;63902;52.000;5.954;2023-04-30T03:36:37;101984.56;;;5.29;91.05
67931;BME280;63902;52.000;5.954;2023-04-30T03:37:38;101977.59;;;5.29;91.30
67931;BME280;63902;52.000;5.954;2023-04-30T03:38:39;101977.56;;;5.28;91.46
67931;BME280;63902;52.000;5.954;2023-04-30T03:39:40;101981.94;;;5.26;91.61
67931;BME280;63902;52.000;5.954;2023-04-30T03:40:40;101982.84;;;5.25;91.29
67931;BME280;63902;52.000;5.954;2023-04-30T03:41:41;101981.94;;;5.23;91.45
67931;BME280;63902;52.000;5.954;2023-04-30T03:42:41;101981.06;;;5.21;91.43
67931;BME280;63902;52.000;5.954;2023-04-30T03:43:42;101981.94;;;5.23;91.71
67931;BME280;63902;52.000;5.954;2023-04-30T03:44:42;101980.22;;;5.22;91.81
67931;BME280;63902;52.000;5.954;2023-04-30T03:45:43;101985.47;;;5.22;91.38
67931;BME280;63902;52.000;5.954;2023-04-30T03:46:45;101989.84;;;5.21;91.78
67931;BME280;63902;52.000;5.954;2023-04-30T03:47:45;101987.22;;;5.20;91.36
67931;BME280;63902;52.000;5.954;2023-04-30T03:48:46;101977.59;;;5.15;91.82
67931;BME280;63902;52.000;5.954;2023-04-30T03:49:46;101990.72;;;5.19;91.53
67931;BME280;63902;52.000;5.954;2023-04-30T03:50:47;101985.47;;;5.17;91.82
67931;BME280;63902;52.000;5.954;2023-04-30T03:51:47;101979.31;;;5.15;91.53
67931;BME280;63902;52.000;5.954;2023-04-30T03:52:48;101985.44;;;5.12;91.92
67931;BME280;63902;52.000;5.954;2023-04-30T03:53:48;101984.59;;;5.13;91.97
67931;BME280;63902;52.000;5.954;2023-04-30T03:54:49;101988.09;;;5.14;91.66
67931;BME280;63902;52.000;5.954;2023-04-30T03:55:49;101984.59;;;5.13;92.09
67931;BME280;63902;52.000;5.954;2023-04-30T03:56:50;101979.31;;;5.09;92.01
67931;BME280;63902;52.000;5.954;2023-04-30T03:57:50;101981.97;;;5.07;91.96
67931;BME280;63902;52.000;5.954;2023-04-30T03:58:51;101979.31;;;5.09;92.06
67931;BME280;63902;52.000;5.954;2023-04-30T03:59:51;101980.19;;;5.06;91.97
67931;BME280;63902;52.000;5.954;2023-04-30T04:00:52;101985.47;;;5.02;91.85
67931;BME280;63902;52.000;5.954;2023-04-30T04:01:54;101990.72;;;5.03;92.39
67931;BME280;63902;52.000;5.954;2023-04-30T04:02:56;101976.69;;;5.00;92.07
67931;BME280;63902;52.000;5.954;2023-04-30T04:03:57;101989.84;;;5.03;92.31
67931;BME280;63902;52.000;5.954;2023-04-30T04:04:58;101979.31;;;5.00;91.98
67931;BME280;63902;52.000;5.954;2023-04-30T04:05:58;101974.94;;;4.97;92.47
67931;BME280;63902;52.000;5.954;2023-04-30T04:06:59;101986.34;;;4.99;92.43
67931;BME280;63902;52.000;5.954;2023-04-30T04:07:59;101981.94;;;4.98;92.54
67931;BME280;63902;52.000;5.954;2023-04-30T04:09:00;101981.94;;;4.98;92.22
67931;BME280;63902;52.000;5.954;2023-04-30T04:10:00;101985.47;;;4.97;92.32
67931;BME280;63902;52.000;5.954;2023-04-30T04:11:01;101981.06;;;4.98;92.32
67931;BME280;63902;52.000;5.954;2023-04-30T04:12:01;101974.94;;;4.94;92.51
67931;BME280;63902;52.000;5.954;2023-04-30T04:13:02;101978.47;;;4.96;92.43
67931;BME280;63902;52.000;5.954;2023-04-30T04:14:03;101971.44;;;4.97;92.22
67931;BME280;63902;52.000;5.954;2023-04-30T04:15:04;101981.06;;;4.98;92.50
67931;BME280;63902;52.000;5.954;2023-04-30T04:16:05;101981.09;;;4.96;92.47
67931;BME280;63902;52.000;5.954;2023-04-30T04:17:07;101983.72;;;4.96;92.48
67931;BME280;63902;52.000;5.954;2023-04-30T04:18:08;101976.69;;;4.95;92.29
67931;BME280;63902;52.000;5.954;2023-04-30T04:19:08;101977.56;;;4.91;92.51
67931;BME280;63902;52.000;5.954;2023-04-30T04:20:10;101972.28;;;4.86;92.40
67931;BME280;63902;52.000;5.954;2023-04-30T04:21:10;101979.31;;;4.93;92.59
67931;BME280;63902;52.000;5.954;2023-04-30T04:22:11;101974.94;;;4.91;92.63
67931;BME280;63902;52.000;5.954;2023-04-30T04:23:11;101971.44;;;4.83;92.37
67931;BME280;63902;52.000;5.954;2023-04-30T04:24:12;101977.56;;;4.92;92.73
67931;BME280;63902;52.000;5.954;2023-04-30T04:25:12;101984.56;;;4.92;92.41
67931;BME280;63902;52.000;5.954;2023-04-30T04:26:13;101984.59;;;4.93;92.63
67931;BME280;63902;52.000;5.954;2023-04-30T04:27:13;101981.09;;;4.93;92.51
67931;BME280;63902;52.000;5.954;2023-04-30T04:28:14;101965.28;;;4.85;92.55
67931;BME280;63902;52.000;5.954;2023-04-30T04:29:14;101980.19;;;4.88;92.46
67931;BME280;63902;52.000;5.954;2023-04-30T04:30:15;101989.84;;;4.93;92.59
67931;BME280;63902;52.000;5.954;2023-04-30T04:31:15;101985.47;;;4.91;92.15
67931;BME280;63902;52.000;5.954;2023-04-30T04:32:17;101981.06;;;4.91;92.63
67931;BME280;63902;52.000;5.954;2023-04-30T04:33:18;101970.56;;;4.85;92.14
67931;BME280;63902;52.000;5.954;2023-04-30T04:34:18;101992.47;;;4.90;92.16
67931;BME280;63902;52.000;5.954;2023-04-30T04:35:19;101988.94;;;4.90;92.49
67931;BME280;63902;52.000;5.954;2023-04-30T04:36:19;101983.69;;;4.90;92.21
67931;BME280;63902;52.000;5.954;2023-04-30T04:37:20;101989.81;;;4.89;92.72
67931;BME280;63902;52.000;5.954;2023-04-30T04:38:20;101986.31;;;4.87;92.74
67931;BME280;63902;52.000;5.954;2023-04-30T04:39:21;101987.19;;;4.89;92.78
67931;BME280;63902;52.000;5.954;2023-04-30T04:40:21;101991.56;;;4.90;92.44
67931;BME280;63902;52.000;5.954;2023-04-30T04:41:22;101990.72;;;4.88;92.34
67931;BME280;63902;52.000;5.954;2023-04-30T04:42:22;101987.19;;;4.89;92.56
67931;BME280;63902;52.000;5.954;2023-04-30T04:43:23;101990.72;;;4.91;92.37
67931;BME280;63902;52.000;5.954;2023-04-30T04:44:23;101988.09;;;4.91;92.31
67931;BME280;63902;52.000;5.954;2023-04-30T04:45:24;101989.81;;;4.89;92.44
67931;BME280;63902;52.000;5.954;2023-04-30T04:46:24;101988.94;;;4.90;92.44
67931;BME280;63902;52.000;5.954;2023-04-30T04:47:26;101985.47;;;4.88;92.34
67931;BME280;63902;52.000;5.954;2023-04-30T04:48:27;101989.81;;;4.89;92.47
67931;BME280;63902;52.000;5.954;2023-04-30T04:49:27;101989.84;;;4.90;92.88
67931;BME280;63902;52.000;5.954;2023-04-30T04:50:28;101987.19;;;4.89;92.37
67931;BME280;63902;52.000;5.954;2023-04-30T04:51:28;101994.22;;;4.93;92.66
67931;BME280;63902;52.000;5.954;2023-04-30T04:52:29;101995.97;;;4.94;92.58
67931;BME280;63902;52.000;5.954;2023-04-30T04:53:29;101988.97;;;4.96;92.71
67931;BME280;63902;52.000;5.954;2023-04-30T04:54:30;101981.94;;;4.95;92.75
67931;BME280;63902;52.000;5.954;2023-04-30T04:55:30;101988.09;;;4.97;92.54
67931;BME280;63902;52.000;5.954;2023-04-30T04:56:31;101988.94;;;5.01;92.41
67931;BME280;63902;52.000;5.954;2023-04-30T04:57:31;101990.72;;;5.00;92.21
67931;BME280;63902;52.000;5.954;2023-04-30T04:58:32;101990.72;;;5.00;92.41
67931;BME280;63902;52.000;5.954;2023-04-30T04:59:32;102000.34;;;5.03;92.36
67931;BME280;63902;52.000;5.954;2023-04-30T05:00:33;101998.63;;;5.05;92.20
67931;BME280;63902;52.000;5.954;2023-04-30T05:01:33;101995.97;;;5.06;92.27
67931;BME280;63902;52.000;5.954;2023-04-30T05:02:35;101999.47;;;5.07;92.25
67931;BME280;63902;52.000;5.954;2023-04-30T05:03:36;101997.75;;;5.07;92.35
67931;BME280;63902;52.000;5.954;2023-04-30T05:04:36;101990.72;;;5.05;92.20
67931;BME280;63902;52.000;5.954;2023-04-30T05:05:37;101998.63;;;5.11;92.35
67931;BME280;63902;52.000;5.954;2023-04-30T05:06:37;101996.84;;;5.14;92.30
67931;BME280;63902;52.000;5.954;2023-04-30T05:07:38;101991.59;;;5.16;92.07
67931;BME280;63902;52.000;5.954;2023-04-30T05:08:38;101995.09;;;5.20;92.02
67931;BME280;63902;52.000;5.954;2023-04-30T05:09:39;101999.47;;;5.21;92.28
67931;BME280;63902;52.000;5.954;2023-04-30T05:10:39;102003.88;;;5.22;92.10
67931;BME280;63902;52.000;5.954;2023-04-30T05:11:40;101998.63;;;5.25;91.93
67931;BME280;63902;52.000;5.954;2023-04-30T05:12:40;101992.47;;;5.26;91.71
67931;BME280;63902;52.000;5.954;2023-04-30T05:13:41;101995.09;;;5.27;91.93
67931;BME280;63902;52.000;5.954;2023-04-30T05:14:41;101995.97;;;5.28;91.74
67931;BME280;63902;52.000;5.954;2023-04-30T05:15:42;101998.63;;;5.29;91.95
67931;BME280;63902;52.000;5.954;2023-04-30T05:16:42;102000.38;;;5.33;92.15
67931;BME280;63902;52.000;5.954;2023-04-30T05:17:44;101997.75;;;5.35;92.02
67931;BME280;63902;52.000;5.954;2023-04-30T05:18:45;102003.84;;;5.40;91.69
67931;BME280;63902;52.000;5.954;2023-04-30T05:19:45;102004.75;;;5.42;91.65
67931;BME280;63902;52.000;5.954;2023-04-30T05:20:46;102009.13;;;5.42;91.81
67931;BME280;63902;52.000;5.954;2023-04-30T05:21:46;101999.47;;;5.42;91.34
67931;BME280;63902;52.000;5.954;2023-04-30T05:22:47;102003.00;;;5.41;91.74
67931;BME280;63902;52.000;5.954;2023-04-30T05:23:47;102003.00;;;5.41;91.76
67931;BME280;63902;52.000;5.954;2023-04-30T05:24:48;101997.75;;;5.41;91.80
67931;BME280;63902;52.000;5.954;2023-04-30T05:25:50;101998.59;;;5.42;91.66
67931;BME280;63902;52.000;5.954;2023-04-30T05:26:51;101999.50;;;5.44;91.70
67931;BME280;63902;52.000;5.954;2023-04-30T05:27:51;101998.59;;;5.48;91.86